createdAt,value
2019-03-25T00:00:56.008Z,1013.08
2019-03-25T00:01:55.980Z,1013.05
2019-03-25T00:02:55.954Z,1013.05
2019-03-25T00:03:55.938Z,1013.06
2019-03-25T00:04:55.912Z,1013.03
2019-03-25T00:05:55.884Z,1013.02
2019-03-25T00:06:55.864Z,1013.00
2019-03-25T00:07:55.839Z,1013.06
2019-03-25T00:09:04.863Z,1013.07
2019-03-25T00:09:55.792Z,1013.04
2019-03-25T00:10:55.770Z,1013.06
2019-03-25T00:11:55.750Z,1013.01
2019-03-25T00:12:55.724Z,1013.00
2019-03-25T00:13:55.698Z,1012.97
2019-03-25T00:14:55.682Z,1012.99
2019-03-25T00:15:56.564Z,1012.96
2019-03-25T00:16:55.634Z,1012.93
2019-03-25T00:17:55.605Z,1012.94
2019-03-25T00:18:55.585Z,1012.96
2019-03-25T00:19:55.558Z,1012.88
2019-03-25T00:20:55.591Z,1012.85
2019-03-25T00:21:55.513Z,1012.83
2019-03-25T00:22:55.492Z,1012.81
2019-03-25T00:23:55.465Z,1012.82
2019-03-25T00:24:55.441Z,1012.78
2019-03-25T00:25:55.420Z,1012.83
2019-03-25T00:26:55.406Z,1012.79
2019-03-25T00:27:55.374Z,1012.75
2019-03-25T00:28:55.353Z,1012.75
2019-03-25T00:29:55.325Z,1012.76
2019-03-25T00:30:55.307Z,1012.71
2019-03-25T00:31:55.284Z,1012.71
2019-03-25T00:32:55.257Z,1012.67
2019-03-25T00:33:55.233Z,1012.64
2019-03-25T00:34:55.211Z,1012.63
2019-03-25T00:35:55.189Z,1012.55
2019-03-25T00:36:55.166Z,1012.57
2019-03-25T00:37:55.143Z,1012.57
2019-03-25T00:38:55.123Z,1012.50
2019-03-25T00:39:55.095Z,1012.49
2019-03-25T00:40:55.069Z,1012.54
2019-03-25T00:41:55.045Z,1012.48
2019-03-25T00:42:55.025Z,1012.47
2019-03-25T00:43:55.000Z,1012.47
2019-03-25T00:44:54.984Z,1012.47
2019-03-25T00:45:54.957Z,1012.48
2019-03-25T00:46:54.936Z,1012.47
2019-03-25T00:47:54.913Z,1012.49
2019-03-25T00:48:54.887Z,1012.46
2019-03-25T00:49:54.867Z,1012.42
2019-03-25T00:50:54.840Z,1012.38
2019-03-25T00:51:54.817Z,1012.35
2019-03-25T00:52:54.795Z,1012.32
2019-03-25T00:53:54.769Z,1012.30
2019-03-25T00:54:54.749Z,1012.32
2019-03-25T00:55:54.727Z,1012.28
2019-03-25T00:56:54.701Z,1012.31
2019-03-25T00:57:54.679Z,1012.27
2019-03-25T00:58:54.657Z,1012.24
2019-03-25T00:59:54.635Z,1012.22
2019-03-25T01:00:54.609Z,1012.23
2019-03-25T01:01:54.581Z,1012.16
2019-03-25T01:02:54.557Z,1012.17
2019-03-25T01:03:54.539Z,1012.14
2019-03-25T01:04:54.515Z,1012.10
2019-03-25T01:05:54.495Z,1012.02
2019-03-25T01:06:54.471Z,1012.09
2019-03-25T01:07:54.447Z,1012.08
2019-03-25T01:08:54.421Z,1012.06
2019-03-25T01:09:54.395Z,1012.05
2019-03-25T01:10:54.382Z,1011.98
2019-03-25T01:11:54.353Z,1011.99
2019-03-25T01:12:54.327Z,1011.98
2019-03-25T01:13:54.317Z,1011.96
2019-03-25T01:14:54.283Z,1011.93
2019-03-25T01:15:54.259Z,1011.94
2019-03-25T01:16:54.239Z,1011.95
2019-03-25T01:17:54.214Z,1011.97
2019-03-25T01:18:54.192Z,1011.95
2019-03-25T01:19:54.171Z,1011.92
2019-03-25T01:20:54.147Z,1011.88
2019-03-25T01:21:54.122Z,1011.89
2019-03-25T01:22:54.098Z,1011.84
2019-03-25T01:23:54.072Z,1011.81
2019-03-25T01:25:01.731Z,1011.79
2019-03-25T01:25:54.031Z,1011.74
2019-03-25T01:26:54.003Z,1011.72
2019-03-25T01:27:53.981Z,1011.62
2019-03-25T01:28:53.960Z,1011.60
2019-03-25T01:29:53.933Z,1011.52
2019-03-25T01:30:53.916Z,1011.50
2019-03-25T01:31:53.897Z,1011.52
2019-03-25T01:32:53.867Z,1011.50
2019-03-25T01:33:53.844Z,1011.49
2019-03-25T01:34:53.818Z,1011.45
2019-03-25T01:35:53.798Z,1011.44
2019-03-25T01:36:53.776Z,1011.43
2019-03-25T01:37:53.752Z,1011.40
2019-03-25T01:38:53.729Z,1011.42
2019-03-25T01:39:53.709Z,1011.40
2019-03-25T01:40:53.683Z,1011.35
2019-03-25T01:41:53.659Z,1011.32
2019-03-25T01:42:53.633Z,1011.29
2019-03-25T01:43:53.612Z,1011.26
2019-03-25T01:44:53.584Z,1011.27
2019-03-25T01:45:53.580Z,1011.22
2019-03-25T01:46:53.550Z,1011.20
2019-03-25T01:47:53.522Z,1011.18
2019-03-25T01:48:53.492Z,1011.19
2019-03-25T01:49:53.476Z,1011.21
2019-03-25T01:50:53.446Z,1011.19
2019-03-25T01:51:53.428Z,1011.17
2019-03-25T01:52:53.402Z,1011.15
2019-03-25T01:53:53.377Z,1011.11
2019-03-25T01:54:53.366Z,1011.10
2019-03-25T01:55:53.336Z,1011.09
2019-03-25T01:56:53.312Z,1011.07
2019-03-25T01:57:53.288Z,1011.02
2019-03-25T01:58:53.271Z,1011.04
2019-03-25T01:59:53.243Z,1011.00
2019-03-25T02:00:53.227Z,1011.03
2019-03-25T02:01:53.198Z,1011.01
2019-03-25T02:02:53.172Z,1010.96
2019-03-25T02:03:53.148Z,1010.97
2019-03-25T02:04:53.128Z,1010.93
2019-03-25T02:05:53.114Z,1010.95
2019-03-25T02:06:53.088Z,1010.89
2019-03-25T02:07:53.058Z,1010.85
2019-03-25T02:08:53.033Z,1010.85
2019-03-25T02:09:53.016Z,1010.83
2019-03-25T02:10:52.986Z,1010.81
2019-03-25T02:11:52.967Z,1010.83
2019-03-25T02:12:52.942Z,1010.81
2019-03-25T02:13:52.917Z,1010.82
2019-03-25T02:14:52.896Z,1010.83
2019-03-25T02:15:52.876Z,1010.80
2019-03-25T02:16:52.846Z,1010.77
2019-03-25T02:17:52.826Z,1010.79
2019-03-25T02:18:52.803Z,1010.77
2019-03-25T02:19:52.782Z,1010.76
2019-03-25T02:20:52.760Z,1010.70
2019-03-25T02:21:52.731Z,1010.66
2019-03-25T02:22:52.897Z,1010.65
2019-03-25T02:23:52.690Z,1010.63
2019-03-25T02:24:52.670Z,1010.61
2019-03-25T02:25:52.639Z,1010.53
2019-03-25T02:26:52.619Z,1010.56
2019-03-25T02:27:52.597Z,1010.58
2019-03-25T02:28:52.575Z,1010.58
2019-03-25T02:29:52.549Z,1010.58
2019-03-25T02:30:52.527Z,1010.58
2019-03-25T02:31:52.506Z,1010.58
2019-03-25T02:32:52.494Z,1010.55
2019-03-25T02:33:52.462Z,1010.54
2019-03-25T02:34:52.435Z,1010.51
2019-03-25T02:35:52.429Z,1010.46
2019-03-25T02:36:52.394Z,1010.46
2019-03-25T02:37:52.368Z,1010.47
2019-03-25T02:38:52.345Z,1010.42
2019-03-25T02:39:52.327Z,1010.41
2019-03-25T02:40:52.301Z,1010.44
2019-03-25T02:41:52.274Z,1010.40
2019-03-25T02:42:52.256Z,1010.39
2019-03-25T02:43:52.228Z,1010.35
2019-03-25T02:44:52.205Z,1010.37
2019-03-25T02:45:52.184Z,1010.41
2019-03-25T02:46:52.166Z,1010.32
2019-03-25T02:47:52.144Z,1010.32
2019-03-25T02:48:52.112Z,1010.30
2019-03-25T02:49:52.095Z,1010.30
2019-03-25T02:50:52.063Z,1010.30
2019-03-25T02:51:52.044Z,1010.25
2019-03-25T02:52:52.033Z,1010.25
2019-03-25T02:53:52.001Z,1010.24
2019-03-25T02:54:51.971Z,1010.20
2019-03-25T02:55:51.950Z,1010.22
2019-03-25T02:56:51.930Z,1010.15
2019-03-25T02:57:51.906Z,1010.09
2019-03-25T02:58:51.880Z,1010.03
2019-03-25T02:59:51.860Z,1010.02
2019-03-25T03:00:51.843Z,1010.02
2019-03-25T03:01:51.821Z,1010.03
2019-03-25T03:02:51.790Z,1009.98
2019-03-25T03:03:51.783Z,1010.00
2019-03-25T03:04:51.752Z,1009.99
2019-03-25T03:05:51.720Z,1009.99
2019-03-25T03:06:51.724Z,1009.86
2019-03-25T03:07:51.682Z,1009.90
2019-03-25T03:08:51.654Z,1009.90
2019-03-25T03:09:51.628Z,1009.90
2019-03-25T03:10:51.608Z,1009.90
2019-03-25T03:11:51.585Z,1009.88
2019-03-25T03:12:51.560Z,1009.81
2019-03-25T03:13:51.589Z,1009.84
2019-03-25T03:14:51.512Z,1009.79
2019-03-25T03:15:51.489Z,1009.78
2019-03-25T03:16:51.480Z,1009.71
2019-03-25T03:17:51.449Z,1009.76
2019-03-25T03:18:51.424Z,1009.77
2019-03-25T03:19:51.398Z,1009.75
2019-03-25T03:20:51.378Z,1009.74
2019-03-25T03:21:51.351Z,1009.68
2019-03-25T03:22:51.329Z,1009.71
2019-03-25T03:23:51.306Z,1009.65
2019-03-25T03:24:51.298Z,1009.64
2019-03-25T03:25:57.777Z,1009.60
2019-03-25T03:26:51.234Z,1009.58
2019-03-25T03:27:51.211Z,1009.53
2019-03-25T03:28:51.197Z,1009.51
2019-03-25T03:29:51.166Z,1009.54
2019-03-25T03:30:51.144Z,1009.52
2019-03-25T03:31:51.122Z,1009.49
2019-03-25T03:32:51.101Z,1009.54
2019-03-25T03:33:51.086Z,1009.53
2019-03-25T03:34:51.069Z,1009.53
2019-03-25T03:35:51.032Z,1009.50
2019-03-25T03:36:51.004Z,1009.48
2019-03-25T03:37:50.988Z,1009.45
2019-03-25T03:38:50.959Z,1009.43
2019-03-25T03:39:50.932Z,1009.38
2019-03-25T03:40:50.923Z,1009.38
2019-03-25T03:41:50.890Z,1009.40
2019-03-25T03:42:50.868Z,1009.36
2019-03-25T03:43:50.843Z,1009.36
2019-03-25T03:44:50.831Z,1009.37
2019-03-25T03:45:50.793Z,1009.34
2019-03-25T03:46:50.773Z,1009.34
2019-03-25T03:47:50.751Z,1009.36
2019-03-25T03:48:50.734Z,1009.37
2019-03-25T03:49:50.706Z,1009.30
2019-03-25T03:50:50.681Z,1009.25
2019-03-25T03:51:50.656Z,1009.29
2019-03-25T03:52:50.636Z,1009.27
2019-03-25T03:53:50.610Z,1009.26
2019-03-25T03:54:50.596Z,1009.20
2019-03-25T03:55:50.562Z,1009.18
2019-03-25T03:56:50.546Z,1009.21
2019-03-25T03:57:50.517Z,1009.16
2019-03-25T03:58:50.544Z,1009.16
2019-03-25T03:59:50.480Z,1009.15
2019-03-25T04:00:50.465Z,1009.15
2019-03-25T04:01:50.447Z,1009.06
2019-03-25T04:02:50.401Z,1009.09
2019-03-25T04:03:50.378Z,1009.09
2019-03-25T04:04:50.357Z,1009.03
2019-03-25T04:05:50.341Z,1009.03
2019-03-25T04:06:50.312Z,1009.00
2019-03-25T04:07:50.357Z,1008.98
2019-03-25T04:08:50.263Z,1009.03
2019-03-25T04:09:50.239Z,1009.02
2019-03-25T04:10:50.218Z,1008.98
2019-03-25T04:11:50.200Z,1008.95
2019-03-25T04:12:50.173Z,1008.91
2019-03-25T04:13:50.261Z,1008.94
2019-03-25T04:14:50.135Z,1008.92
2019-03-25T04:15:50.105Z,1008.90
2019-03-25T04:16:50.079Z,1008.83
2019-03-25T04:17:50.054Z,1008.82
2019-03-25T04:18:50.032Z,1008.81
2019-03-25T04:19:50.004Z,1008.81
2019-03-25T04:20:49.986Z,1008.79
2019-03-25T04:21:50.001Z,1008.75
2019-03-25T04:22:49.955Z,1008.69
2019-03-25T04:23:49.968Z,1008.72
2019-03-25T04:24:49.906Z,1008.69
2019-03-25T04:25:49.870Z,1008.66
2019-03-25T04:26:49.847Z,1008.67
2019-03-25T04:27:49.822Z,1008.68
2019-03-25T04:28:49.810Z,1008.69
2019-03-25T04:29:49.775Z,1008.66
2019-03-25T04:30:49.760Z,1008.71
2019-03-25T04:31:49.737Z,1008.64
2019-03-25T04:32:49.707Z,1008.64
2019-03-25T04:33:49.686Z,1008.61
2019-03-25T04:34:49.664Z,1008.58
2019-03-25T04:35:49.640Z,1008.55
2019-03-25T04:36:49.614Z,1008.57
2019-03-25T04:37:49.592Z,1008.55
2019-03-25T04:38:49.566Z,1008.47
2019-03-25T04:39:49.545Z,1008.47
2019-03-25T04:40:49.524Z,1008.43
2019-03-25T04:41:49.507Z,1008.40
2019-03-25T04:42:49.478Z,1008.37
2019-03-25T04:43:49.454Z,1008.33
2019-03-25T04:44:49.432Z,1008.36
2019-03-25T04:45:49.404Z,1008.40
2019-03-25T04:46:49.384Z,1008.33
2019-03-25T04:47:49.358Z,1008.33
2019-03-25T04:48:49.339Z,1008.30
2019-03-25T04:49:49.313Z,1008.33
2019-03-25T04:50:49.289Z,1008.34
2019-03-25T04:51:49.275Z,1008.34
2019-03-25T04:52:49.247Z,1008.36
2019-03-25T04:53:49.219Z,1008.30
2019-03-25T04:54:49.200Z,1008.31
2019-03-25T04:55:49.172Z,1008.25
2019-03-25T04:56:49.151Z,1008.26
2019-03-25T04:57:49.124Z,1008.23
2019-03-25T04:58:49.107Z,1008.20
2019-03-25T04:59:49.082Z,1008.14
2019-03-25T05:00:49.063Z,1008.13
2019-03-25T05:01:49.047Z,1008.11
2019-03-25T05:02:49.007Z,1008.10
2019-03-25T05:03:48.987Z,1008.09
2019-03-25T05:04:48.962Z,1008.07
2019-03-25T05:05:48.942Z,1008.12
2019-03-25T05:06:48.920Z,1008.06
2019-03-25T05:07:48.897Z,1008.13
2019-03-25T05:08:48.871Z,1008.14
2019-03-25T05:09:48.843Z,1008.18
2019-03-25T05:10:48.826Z,1008.14
2019-03-25T05:11:48.801Z,1008.11
2019-03-25T05:12:48.778Z,1008.10
2019-03-25T05:13:48.754Z,1008.06
2019-03-25T05:14:48.734Z,1008.06
2019-03-25T05:15:48.709Z,1007.99
2019-03-25T05:16:48.686Z,1007.95
2019-03-25T05:17:48.664Z,1007.90
2019-03-25T05:18:48.637Z,1007.91
2019-03-25T05:19:48.617Z,1007.90
2019-03-25T05:20:48.596Z,1007.87
2019-03-25T05:21:48.568Z,1007.87
2019-03-25T05:22:48.543Z,1007.84
2019-03-25T05:23:48.523Z,1007.82
2019-03-25T05:24:48.501Z,1007.80
2019-03-25T05:25:48.484Z,1007.77
2019-03-25T05:26:51.324Z,1007.73
2019-03-25T05:27:48.434Z,1007.73
2019-03-25T05:28:48.414Z,1007.73
2019-03-25T05:29:48.384Z,1007.73
2019-03-25T05:30:48.361Z,1007.74
2019-03-25T05:31:48.343Z,1007.70
2019-03-25T05:33:09.229Z,1007.70
2019-03-25T05:34:09.210Z,1007.69
2019-03-25T05:35:09.187Z,1007.61
2019-03-25T05:36:09.161Z,1007.65
2019-03-25T05:37:09.138Z,1007.58
2019-03-25T05:38:09.115Z,1007.53
2019-03-25T05:39:09.091Z,1007.54
2019-03-25T05:40:09.068Z,1007.57
2019-03-25T05:41:09.045Z,1007.55
2019-03-25T05:42:09.021Z,1007.55
2019-03-25T05:43:08.999Z,1007.51
2019-03-25T05:44:08.973Z,1007.51
2019-03-25T05:45:08.954Z,1007.52
2019-03-25T05:46:08.935Z,1007.49
2019-03-25T05:47:08.910Z,1007.46
2019-03-25T05:48:08.889Z,1007.46
2019-03-25T05:49:08.869Z,1007.46
2019-03-25T05:50:09.301Z,1007.43
2019-03-25T05:51:08.823Z,1007.46
2019-03-25T05:52:08.799Z,1007.45
2019-03-25T05:53:08.779Z,1007.40
2019-03-25T05:54:08.757Z,1007.45
2019-03-25T05:55:08.736Z,1007.43
2019-03-25T05:56:08.714Z,1007.41
2019-03-25T05:57:08.686Z,1007.40
2019-03-25T05:58:08.667Z,1007.36
2019-03-25T05:59:08.641Z,1007.35
2019-03-25T06:00:08.622Z,1007.36
2019-03-25T06:01:08.599Z,1007.34
2019-03-25T06:02:08.575Z,1007.35
2019-03-25T06:03:08.557Z,1007.34
2019-03-25T06:04:08.532Z,1007.36
2019-03-25T06:05:08.511Z,1007.28
2019-03-25T06:06:08.484Z,1007.29
2019-03-25T06:07:08.465Z,1007.27
2019-03-25T06:08:08.445Z,1007.31
2019-03-25T06:09:08.430Z,1007.34
2019-03-25T06:10:08.401Z,1007.39
2019-03-25T06:11:08.376Z,1007.39
2019-03-25T06:12:08.355Z,1007.36
2019-03-25T06:13:08.331Z,1007.40
2019-03-25T06:14:08.315Z,1007.42
2019-03-25T06:15:08.288Z,1007.52
2019-03-25T06:16:08.267Z,1007.51
2019-03-25T06:17:08.244Z,1007.54
2019-03-25T06:18:08.222Z,1007.50
2019-03-25T06:19:08.202Z,1007.50
2019-03-25T06:20:08.185Z,1007.49
2019-03-25T06:21:08.156Z,1007.44
2019-03-25T06:22:08.136Z,1007.39
2019-03-25T06:23:08.113Z,1007.41
2019-03-25T06:24:08.759Z,1007.44
2019-03-25T06:25:08.091Z,1007.41
2019-03-25T06:26:08.045Z,1007.32
2019-03-25T06:27:14.071Z,1007.31
2019-03-25T06:28:08.002Z,1007.38
2019-03-25T06:29:07.973Z,1007.39
2019-03-25T06:30:07.958Z,1007.34
2019-03-25T06:31:07.936Z,1007.34
2019-03-25T06:32:07.914Z,1007.31
2019-03-25T06:33:12.664Z,1007.27
2019-03-25T06:34:07.865Z,1007.28
2019-03-25T06:35:09.036Z,1007.28
2019-03-25T06:36:07.822Z,1007.37
2019-03-25T06:37:07.794Z,1007.34
2019-03-25T06:38:07.774Z,1007.39
2019-03-25T06:39:07.754Z,1007.36
2019-03-25T06:40:07.755Z,1007.42
2019-03-25T06:41:07.710Z,1007.37
2019-03-25T06:42:07.686Z,1007.44
2019-03-25T06:43:07.669Z,1007.44
2019-03-25T06:44:07.642Z,1007.41
2019-03-25T06:45:07.618Z,1007.45
2019-03-25T06:46:07.648Z,1007.41
2019-03-25T06:47:07.574Z,1007.44
2019-03-25T06:48:07.548Z,1007.48
2019-03-25T06:49:07.530Z,1007.52
2019-03-25T06:50:07.505Z,1007.47
2019-03-25T06:51:07.484Z,1007.50
2019-03-25T06:52:07.462Z,1007.47
2019-03-25T06:53:07.445Z,1007.45
2019-03-25T06:54:07.419Z,1007.47
2019-03-25T06:55:07.392Z,1007.49
2019-03-25T06:56:07.368Z,1007.52
2019-03-25T06:57:07.354Z,1007.52
2019-03-25T06:58:07.332Z,1007.55
2019-03-25T06:59:07.306Z,1007.49
2019-03-25T07:00:07.283Z,1007.52
2019-03-25T07:01:07.258Z,1007.56
2019-03-25T07:02:07.234Z,1007.59
2019-03-25T07:03:07.214Z,1007.59
2019-03-25T07:04:07.198Z,1007.62
2019-03-25T07:05:07.169Z,1007.56
2019-03-25T07:06:07.146Z,1007.60
2019-03-25T07:07:07.122Z,1007.60
2019-03-25T07:08:07.100Z,1007.62
2019-03-25T07:09:07.074Z,1007.61
2019-03-25T07:10:07.053Z,1007.57
2019-03-25T07:11:07.033Z,1007.62
2019-03-25T07:12:07.010Z,1007.61
2019-03-25T07:13:06.981Z,1007.56
2019-03-25T07:14:06.960Z,1007.61
2019-03-25T07:15:06.941Z,1007.59
2019-03-25T07:16:06.923Z,1007.60
2019-03-25T07:17:06.894Z,1007.67
2019-03-25T07:18:06.875Z,1007.64
2019-03-25T07:19:06.852Z,1007.70
2019-03-25T07:20:06.827Z,1007.76
2019-03-25T07:21:06.812Z,1007.69
2019-03-25T07:22:06.783Z,1007.66
2019-03-25T07:23:06.757Z,1007.68
2019-03-25T07:24:06.737Z,1007.65
2019-03-25T07:25:06.721Z,1007.66
2019-03-25T07:26:06.695Z,1007.72
2019-03-25T07:27:06.666Z,1007.65
2019-03-25T07:28:06.645Z,1007.68
2019-03-25T07:29:06.623Z,1007.69
2019-03-25T07:30:06.601Z,1007.72
2019-03-25T07:31:06.578Z,1007.72
2019-03-25T07:32:08.989Z,1007.70
2019-03-25T07:33:06.528Z,1007.70
2019-03-25T07:34:06.504Z,1007.70
2019-03-25T07:35:06.483Z,1007.68
2019-03-25T07:36:06.463Z,1007.71
2019-03-25T07:37:06.440Z,1007.70
2019-03-25T07:38:06.424Z,1007.70
2019-03-25T07:39:06.393Z,1007.70
2019-03-25T07:40:06.374Z,1007.68
2019-03-25T07:41:06.351Z,1007.73
2019-03-25T07:42:06.325Z,1007.69
2019-03-25T07:43:06.305Z,1007.75
2019-03-25T07:44:08.649Z,1007.72
2019-03-25T07:45:06.262Z,1007.74
2019-03-25T07:46:06.233Z,1007.74
2019-03-25T07:47:06.207Z,1007.74
2019-03-25T07:48:06.191Z,1007.76
2019-03-25T07:49:06.167Z,1007.76
2019-03-25T07:50:06.142Z,1007.71
2019-03-25T07:51:06.524Z,1007.66
2019-03-25T07:52:07.147Z,1007.67
2019-03-25T07:53:06.081Z,1007.68
2019-03-25T07:54:06.071Z,1007.69
2019-03-25T07:55:06.054Z,1007.65
2019-03-25T07:56:06.005Z,1007.69
2019-03-25T07:57:05.983Z,1007.63
2019-03-25T07:58:05.960Z,1007.64
2019-03-25T07:59:05.949Z,1007.70
2019-03-25T08:00:13.459Z,1007.68
2019-03-25T08:01:05.892Z,1007.70
2019-03-25T08:02:05.885Z,1007.71
2019-03-25T08:03:05.845Z,1007.74
2019-03-25T08:04:05.846Z,1007.74
2019-03-25T08:05:05.803Z,1007.73
2019-03-25T08:06:05.778Z,1007.74
2019-03-25T08:07:05.771Z,1007.76
2019-03-25T08:08:07.393Z,1007.76
2019-03-25T08:09:05.714Z,1007.76
2019-03-25T08:10:05.716Z,1007.80
2019-03-25T08:11:05.691Z,1007.78
2019-03-25T08:12:05.648Z,1007.79
2019-03-25T08:13:05.687Z,1007.80
2019-03-25T08:14:05.608Z,1007.81
2019-03-25T08:15:05.601Z,1007.83
2019-03-25T08:16:05.549Z,1007.88
2019-03-25T08:17:05.525Z,1007.94
2019-03-25T08:18:05.505Z,1007.92
2019-03-25T08:19:05.479Z,1007.81
2019-03-25T08:20:05.463Z,1007.79
2019-03-25T08:21:05.449Z,1007.79
2019-03-25T08:22:05.411Z,1007.78
2019-03-25T08:23:05.401Z,1007.74
2019-03-25T08:24:05.370Z,1007.78
2019-03-25T08:25:05.347Z,1007.74
2019-03-25T08:26:05.323Z,1007.76
2019-03-25T08:27:05.303Z,1007.78
2019-03-25T08:28:05.279Z,1007.77
2019-03-25T08:29:05.261Z,1007.77
2019-03-25T08:30:05.233Z,1007.72
2019-03-25T08:31:05.210Z,1007.77
2019-03-25T08:32:05.192Z,1007.81
2019-03-25T08:33:05.170Z,1007.85
2019-03-25T08:34:05.148Z,1007.82
2019-03-25T08:35:05.120Z,1007.83
2019-03-25T08:36:05.104Z,1007.86
2019-03-25T08:37:05.076Z,1007.83
2019-03-25T08:38:05.049Z,1007.86
2019-03-25T08:39:05.033Z,1007.89
2019-03-25T08:40:05.011Z,1007.92
2019-03-25T08:41:04.987Z,1007.96
2019-03-25T08:42:04.959Z,1007.95
2019-03-25T08:43:04.942Z,1008.01
2019-03-25T08:44:04.921Z,1007.96
2019-03-25T08:45:04.901Z,1008.02
2019-03-25T08:46:04.880Z,1008.08
2019-03-25T08:47:04.852Z,1008.15
2019-03-25T08:48:04.829Z,1008.10
2019-03-25T08:49:04.808Z,1008.17
2019-03-25T08:50:04.784Z,1008.13
2019-03-25T08:51:04.763Z,1008.04
2019-03-25T08:52:04.743Z,1008.09
2019-03-25T08:53:04.721Z,1008.08
2019-03-25T08:54:04.695Z,1008.00
2019-03-25T08:55:04.672Z,1008.03
2019-03-25T08:56:04.665Z,1008.06
2019-03-25T08:57:04.627Z,1008.05
2019-03-25T08:58:11.901Z,1008.11
2019-03-25T08:59:04.587Z,1008.14
2019-03-25T09:00:04.567Z,1008.11
2019-03-25T09:01:04.541Z,1008.15
2019-03-25T09:02:04.521Z,1008.25
2019-03-25T09:03:04.494Z,1008.27
2019-03-25T09:04:04.472Z,1008.30
2019-03-25T09:05:04.456Z,1008.18
2019-03-25T09:06:04.435Z,1008.30
2019-03-25T09:07:04.411Z,1008.40
2019-03-25T09:08:04.382Z,1008.45
2019-03-25T09:09:04.366Z,1008.48
2019-03-25T09:10:04.340Z,1008.47
2019-03-25T09:11:06.963Z,1008.44
2019-03-25T09:12:04.299Z,1008.47
2019-03-25T09:13:04.280Z,1008.39
2019-03-25T09:14:04.261Z,1008.38
2019-03-25T09:15:04.235Z,1008.43
2019-03-25T09:16:04.211Z,1008.42
2019-03-25T09:17:04.193Z,1008.32
2019-03-25T09:18:04.175Z,1008.34
2019-03-25T09:19:04.146Z,1008.35
2019-03-25T09:20:04.124Z,1008.32
2019-03-25T09:21:04.108Z,1008.31
2019-03-25T09:22:04.089Z,1008.36
2019-03-25T09:23:04.065Z,1008.37
2019-03-25T09:24:04.040Z,1008.28
2019-03-25T09:25:04.027Z,1008.32
2019-03-25T09:26:04.003Z,1008.35
2019-03-25T09:27:03.974Z,1008.33
2019-03-25T09:28:03.961Z,1008.40
2019-03-25T09:29:03.934Z,1008.40
2019-03-25T09:30:03.922Z,1008.42
2019-03-25T09:31:03.894Z,1008.49
2019-03-25T09:32:03.870Z,1008.55
2019-03-25T09:33:03.846Z,1008.52
2019-03-25T09:34:03.830Z,1008.59
2019-03-25T09:35:03.809Z,1008.65
2019-03-25T09:36:03.898Z,1008.57
2019-03-25T09:37:03.759Z,1008.68
2019-03-25T09:38:03.739Z,1008.77
2019-03-25T09:39:03.721Z,1008.70
2019-03-25T09:40:03.698Z,1008.71
2019-03-25T09:41:03.686Z,1008.66
2019-03-25T09:42:03.653Z,1008.64
2019-03-25T09:43:03.637Z,1008.71
2019-03-25T09:44:03.614Z,1008.72
2019-03-25T09:45:03.596Z,1008.63
2019-03-25T09:46:03.572Z,1008.74
2019-03-25T09:47:03.547Z,1008.74
2019-03-25T09:48:03.539Z,1008.70
2019-03-25T09:49:03.514Z,1008.77
2019-03-25T09:50:03.487Z,1008.71
2019-03-25T09:51:03.463Z,1008.68
2019-03-25T09:52:03.448Z,1008.66
2019-03-25T09:53:03.421Z,1008.67
2019-03-25T09:54:03.415Z,1008.64
2019-03-25T09:55:03.385Z,1008.70
2019-03-25T09:56:03.359Z,1008.64
2019-03-25T09:57:03.345Z,1008.70
2019-03-25T09:58:03.322Z,1008.69
2019-03-25T09:59:03.298Z,1008.72
2019-03-25T10:00:03.279Z,1008.77
2019-03-25T10:01:03.251Z,1008.78
2019-03-25T10:02:03.233Z,1008.71
2019-03-25T10:03:03.212Z,1008.76
2019-03-25T10:04:03.192Z,1008.73
2019-03-25T10:05:03.171Z,1008.74
2019-03-25T10:06:03.149Z,1008.82
2019-03-25T10:07:03.126Z,1008.79
2019-03-25T10:08:03.103Z,1008.93
2019-03-25T10:09:03.087Z,1009.02
2019-03-25T10:10:03.065Z,1008.91
2019-03-25T10:11:03.045Z,1008.90
2019-03-25T10:12:03.020Z,1008.84
2019-03-25T10:13:03.002Z,1008.80
2019-03-25T10:14:02.978Z,1008.78
2019-03-25T10:15:02.958Z,1008.70
2019-03-25T10:16:02.938Z,1008.81
2019-03-25T10:17:02.913Z,1008.81
2019-03-25T10:18:02.907Z,1008.80
2019-03-25T10:19:02.871Z,1008.86
2019-03-25T10:20:02.854Z,1008.86
2019-03-25T10:21:02.833Z,1008.88
2019-03-25T10:22:02.810Z,1008.90
2019-03-25T10:23:02.788Z,1008.88
2019-03-25T10:24:02.806Z,1008.93
2019-03-25T10:25:02.752Z,1008.92
2019-03-25T10:26:02.729Z,1008.87
2019-03-25T10:27:02.703Z,1009.01
2019-03-25T10:28:02.683Z,1008.97
2019-03-25T10:29:02.663Z,1008.94
2019-03-25T10:30:02.646Z,1009.00
2019-03-25T10:31:02.618Z,1009.03
2019-03-25T10:32:02.599Z,1009.03
2019-03-25T10:33:02.578Z,1009.05
2019-03-25T10:34:02.563Z,1009.05
2019-03-25T10:35:02.538Z,1009.08
2019-03-25T10:36:02.521Z,1009.08
2019-03-25T10:37:02.497Z,1009.12
2019-03-25T10:38:02.475Z,1009.16
2019-03-25T10:39:02.452Z,1009.19
2019-03-25T10:40:02.434Z,1009.17
2019-03-25T10:41:02.410Z,1009.22
2019-03-25T10:42:02.394Z,1009.18
2019-03-25T10:43:02.378Z,1009.24
2019-03-25T10:44:02.353Z,1009.34
2019-03-25T10:45:02.344Z,1009.35
2019-03-25T10:46:02.315Z,1009.24
2019-03-25T10:47:02.290Z,1009.26
2019-03-25T10:48:02.271Z,1009.30
2019-03-25T10:49:02.256Z,1009.34
2019-03-25T10:50:02.232Z,1009.22
2019-03-25T10:51:02.207Z,1009.13
2019-03-25T10:52:02.196Z,1009.09
2019-03-25T10:53:02.168Z,1009.15
2019-03-25T10:54:02.147Z,1009.10
2019-03-25T10:55:02.136Z,1009.16
2019-03-25T10:56:02.115Z,1009.16
2019-03-25T10:57:02.091Z,1009.10
2019-03-25T10:58:02.071Z,1009.06
2019-03-25T10:59:02.053Z,1009.13
2019-03-25T11:00:02.028Z,1009.08
2019-03-25T11:01:02.011Z,1009.14
2019-03-25T11:02:01.990Z,1009.16
2019-03-25T11:03:01.979Z,1009.17
2019-03-25T11:04:01.951Z,1009.19
2019-03-25T11:05:01.933Z,1009.17
2019-03-25T11:06:01.912Z,1009.19
2019-03-25T11:07:01.892Z,1009.20
2019-03-25T11:08:01.872Z,1009.26
2019-03-25T11:09:01.857Z,1009.26
2019-03-25T11:10:01.835Z,1009.33
2019-03-25T11:11:01.811Z,1009.37
2019-03-25T11:12:01.792Z,1010.02
2019-03-25T11:13:01.772Z,1010.02
2019-03-25T11:14:01.751Z,1010.12
2019-03-25T11:15:01.751Z,1009.98
2019-03-25T11:16:01.726Z,1009.55
2019-03-25T11:17:01.693Z,1009.39
2019-03-25T11:18:01.681Z,1010.03
2019-03-25T11:19:01.659Z,1009.58
2019-03-25T11:20:01.639Z,1009.75
2019-03-25T11:21:01.625Z,1009.85
2019-03-25T11:22:01.604Z,1009.76
2019-03-25T11:23:01.587Z,1009.68
2019-03-25T11:24:01.570Z,1009.71
2019-03-25T11:25:01.560Z,1010.07
2019-03-25T11:26:01.535Z,1009.49
2019-03-25T11:27:01.516Z,1009.21
2019-03-25T11:28:01.501Z,1009.18
2019-03-25T11:29:08.439Z,1009.11
2019-03-25T11:30:01.469Z,1009.06
2019-03-25T11:31:01.457Z,1009.03
2019-03-25T11:32:01.441Z,1009.03
2019-03-25T11:33:01.452Z,1009.01
2019-03-25T11:34:01.404Z,1009.06
2019-03-25T11:35:01.397Z,1008.98
2019-03-25T11:36:02.788Z,1009.07
2019-03-25T11:37:01.365Z,1009.01
2019-03-25T11:38:01.341Z,1009.01
2019-03-25T11:39:01.330Z,1008.99
2019-03-25T11:40:01.310Z,1009.10
2019-03-25T11:41:01.295Z,1009.10
2019-03-25T11:42:01.277Z,1009.05
2019-03-25T11:43:01.259Z,1009.05
2019-03-25T11:44:01.245Z,1009.13
2019-03-25T11:45:01.227Z,1009.16
2019-03-25T11:46:01.212Z,1009.67
2019-03-25T11:47:01.192Z,1009.65
2019-03-25T11:48:01.174Z,1009.22
2019-03-25T11:49:01.159Z,1009.21
2019-03-25T11:50:01.143Z,1009.20
2019-03-25T11:51:01.126Z,1009.19
2019-03-25T11:52:01.107Z,1009.16
2019-03-25T11:53:01.096Z,1009.08
2019-03-25T11:54:01.077Z,1009.13
2019-03-25T11:55:01.065Z,1009.15
2019-03-25T11:56:01.042Z,1009.11
2019-03-25T11:57:01.029Z,1009.12
2019-03-25T11:58:01.007Z,1009.21
2019-03-25T11:59:02.861Z,1009.21
2019-03-25T12:00:00.981Z,1009.29
2019-03-25T12:01:00.959Z,1009.73
2019-03-25T12:02:00.947Z,1009.99
2019-03-25T12:03:00.932Z,1009.96
2019-03-25T12:04:00.913Z,1009.90
2019-03-25T12:05:00.901Z,1009.93
2019-03-25T12:06:00.879Z,1009.84